createdAt,value
2022-08-05T00:00:12.000Z,0.00
2022-08-05T00:01:21.018Z,0.00
2022-08-05T00:02:12.037Z,0.00
2022-08-05T00:03:15.648Z,0.00
2022-08-05T00:04:11.970Z,0.00
2022-08-05T00:06:03.301Z,0.00
2022-08-05T00:06:28.926Z,0.00
2022-08-05T00:07:27.206Z,0.00
2022-08-05T00:08:32.432Z,0.00
2022-08-05T00:09:13.206Z,0.00
2022-08-05T00:10:10.906Z,0.00
2022-08-05T00:11:20.814Z,0.00
2022-08-05T00:12:13.214Z,0.00
2022-08-05T00:13:18.693Z,0.00
2022-08-05T00:14:12.993Z,0.00
2022-08-05T00:15:54.280Z,0.00
2022-08-05T00:16:12.672Z,0.00
2022-08-05T00:17:28.514Z,0.00
2022-08-05T00:18:21.640Z,0.00
2022-08-05T00:19:11.811Z,0.00
2022-08-05T00:20:10.790Z,0.00
2022-08-05T00:21:10.783Z,0.00
2022-08-05T00:22:11.095Z,0.00
2022-08-05T00:23:12.593Z,0.00
2022-08-05T00:24:16.215Z,0.00
2022-08-05T00:25:12.660Z,0.00
2022-08-05T00:26:10.727Z,0.00
2022-08-05T00:27:14.192Z,0.00
2022-08-05T00:28:12.693Z,0.00
2022-08-05T00:29:10.704Z,0.00
2022-08-05T00:30:11.372Z,0.00
2022-08-05T00:31:10.864Z,0.00
2022-08-05T00:32:14.783Z,0.00
2022-08-05T00:33:15.372Z,0.00
2022-08-05T00:34:56.057Z,0.00
2022-08-05T00:35:11.631Z,0.00
2022-08-05T00:36:15.897Z,0.00
2022-08-05T00:37:14.248Z,0.00
2022-08-05T00:38:10.606Z,0.00
2022-08-05T00:39:13.949Z,0.00
2022-08-05T00:40:10.575Z,0.00
2022-08-05T00:41:11.931Z,0.00
2022-08-05T00:42:10.552Z,0.00
2022-08-05T00:43:11.543Z,0.00
2022-08-05T00:44:10.559Z,0.00
2022-08-05T00:45:11.730Z,0.00
2022-08-05T00:46:10.509Z,0.00
2022-08-05T00:47:11.998Z,0.00
2022-08-05T00:48:10.488Z,0.00
2022-08-05T00:49:10.482Z,0.00
2022-08-05T00:50:10.484Z,0.00
2022-08-05T00:51:50.693Z,0.00
2022-08-05T00:52:11.452Z,0.00
2022-08-05T00:53:45.373Z,0.00
2022-08-05T00:54:11.425Z,0.00
2022-08-05T00:55:10.428Z,0.00
2022-08-05T00:56:10.406Z,0.00
2022-08-05T00:57:10.399Z,0.00
2022-08-05T00:58:11.312Z,0.00
2022-08-05T00:59:10.374Z,0.00
2022-08-05T01:00:11.142Z,0.00
2022-08-05T01:01:10.419Z,0.00
2022-08-05T01:02:10.340Z,0.00
2022-08-05T01:03:10.330Z,0.00
2022-08-05T01:04:14.194Z,0.00
2022-08-05T01:05:10.382Z,0.00
2022-08-05T01:06:13.998Z,0.00
2022-08-05T01:07:13.848Z,0.00
2022-08-05T01:08:30.647Z,0.00
2022-08-05T01:09:11.269Z,0.00
2022-08-05T01:10:10.266Z,0.00
2022-08-05T01:11:10.258Z,0.00
2022-08-05T01:12:18.566Z,0.00
2022-08-05T01:13:13.334Z,0.00
2022-08-05T01:14:11.214Z,0.00
2022-08-05T01:15:35.630Z,0.00
2022-08-05T01:16:11.189Z,0.00
2022-08-05T01:17:10.184Z,0.00
2022-08-05T01:18:10.171Z,0.00
2022-08-05T01:19:10.169Z,0.00
2022-08-05T01:20:10.162Z,0.00
2022-08-05T01:21:10.138Z,0.00
2022-08-05T01:22:15.357Z,0.00
2022-08-05T01:23:15.009Z,0.00
2022-08-05T01:24:14.183Z,0.00
2022-08-05T01:25:10.148Z,0.00
2022-08-05T01:26:10.089Z,0.00
2022-08-05T01:27:17.838Z,0.00
2022-08-05T01:28:11.064Z,0.00
2022-08-05T01:29:10.052Z,0.00
2022-08-05T01:30:17.715Z,0.00
2022-08-05T01:31:11.492Z,0.00
2022-08-05T01:32:12.603Z,0.00
2022-08-05T01:33:11.025Z,0.00
2022-08-05T01:34:11.059Z,0.00
2022-08-05T01:35:10.670Z,0.00
2022-08-05T01:36:12.920Z,0.00
2022-08-05T01:37:10.963Z,0.00
2022-08-05T01:38:24.590Z,0.00
2022-08-05T01:39:10.990Z,0.00
2022-08-05T01:40:09.990Z,0.00
2022-08-05T01:41:09.927Z,0.00
2022-08-05T01:42:09.915Z,0.00
2022-08-05T01:43:09.900Z,0.00
2022-08-05T01:44:11.171Z,0.00
2022-08-05T01:45:09.891Z,0.00
2022-08-05T01:46:16.285Z,0.00
2022-08-05T01:47:10.865Z,0.00
2022-08-05T01:48:10.408Z,0.00
2022-08-05T01:49:22.955Z,0.00
2022-08-05T01:50:14.997Z,0.00
2022-08-05T01:51:12.377Z,0.00
2022-08-05T01:52:17.713Z,0.00
2022-08-05T01:53:10.808Z,0.00
2022-08-05T01:54:09.942Z,0.00
2022-08-05T01:55:09.787Z,0.00
2022-08-05T01:56:09.766Z,0.00
2022-08-05T01:58:12.556Z,0.00
2022-08-05T01:58:15.314Z,0.00
2022-08-05T01:59:10.736Z,0.00
2022-08-05T02:00:11.876Z,0.00
2022-08-05T02:01:09.710Z,0.00
2022-08-05T02:02:10.831Z,0.00
2022-08-05T02:03:16.431Z,0.00
2022-08-05T02:04:10.681Z,0.00
2022-08-05T02:05:11.814Z,0.00
2022-08-05T02:06:33.800Z,0.00
2022-08-05T02:07:10.648Z,0.00
2022-08-05T02:08:10.637Z,0.00
2022-08-05T02:09:09.643Z,0.00
2022-08-05T02:10:10.656Z,0.00
2022-08-05T02:11:11.719Z,0.00
2022-08-05T02:12:09.980Z,0.00
2022-08-05T02:13:15.928Z,0.00
2022-08-05T02:14:12.732Z,0.00
2022-08-05T02:15:12.242Z,0.00
2022-08-05T02:16:09.554Z,0.00
2022-08-05T02:17:16.870Z,0.00
2022-08-05T02:18:27.978Z,0.00
2022-08-05T02:19:10.549Z,0.00
2022-08-05T02:20:09.526Z,0.00
2022-08-05T02:21:14.747Z,0.00
2022-08-05T02:22:10.486Z,0.00
2022-08-05T02:23:10.473Z,0.00
2022-08-05T02:24:09.467Z,0.00
2022-08-05T02:25:09.468Z,0.00
2022-08-05T02:26:09.446Z,0.00
2022-08-05T02:27:10.386Z,0.00
2022-08-05T02:28:09.425Z,0.00
2022-08-05T02:29:09.409Z,0.00
2022-08-05T02:30:10.414Z,0.00
2022-08-05T02:31:14.501Z,0.00
2022-08-05T02:32:10.380Z,0.00
2022-08-05T02:33:09.368Z,0.00
2022-08-05T02:34:09.921Z,0.00
2022-08-05T02:35:13.791Z,0.00
2022-08-05T02:36:13.534Z,0.00
2022-08-05T02:37:10.322Z,0.00
2022-08-05T02:38:09.718Z,0.00
2022-08-05T02:39:09.379Z,0.00
2022-08-05T02:40:09.588Z,0.00
2022-08-05T02:41:17.147Z,0.00
2022-08-05T02:42:10.270Z,0.00
2022-08-05T02:43:10.257Z,0.00
2022-08-05T02:44:12.266Z,0.00
2022-08-05T02:45:09.254Z,0.00
2022-08-05T02:46:09.228Z,0.00
2022-08-05T02:47:10.214Z,0.00
2022-08-05T02:48:12.405Z,0.00
2022-08-05T02:49:11.122Z,0.00
2022-08-05T02:50:09.198Z,0.00
2022-08-05T02:51:09.174Z,0.00
2022-08-05T02:52:09.371Z,0.00
2022-08-05T02:53:11.698Z,0.00
2022-08-05T02:54:09.142Z,0.00
2022-08-05T02:55:10.845Z,0.00
2022-08-05T02:56:09.122Z,4.00
2022-08-05T02:57:09.809Z,4.00
2022-08-05T02:58:13.086Z,0.00
2022-08-05T02:59:09.086Z,0.00
2022-08-05T03:00:09.088Z,4.00
2022-08-05T03:01:09.166Z,0.00
2022-08-05T03:02:09.056Z,0.00
2022-08-05T03:03:10.556Z,4.00
2022-08-05T03:04:14.006Z,0.00
2022-08-05T03:05:10.253Z,4.00
2022-08-05T03:06:54.482Z,8.00
2022-08-05T03:07:30.825Z,4.00
2022-08-05T03:08:10.330Z,4.00
2022-08-05T03:09:08.979Z,4.00
2022-08-05T03:10:09.998Z,4.00
2022-08-05T03:11:54.642Z,8.00
2022-08-05T03:12:09.947Z,8.00
2022-08-05T03:13:08.934Z,12.00
2022-08-05T03:14:09.931Z,12.00
2022-08-05T03:15:09.179Z,12.00
2022-08-05T03:16:08.905Z,16.00
2022-08-05T03:17:09.215Z,20.00
2022-08-05T03:18:08.880Z,24.00
2022-08-05T03:19:17.040Z,24.00
2022-08-05T03:20:10.130Z,28.00
2022-08-05T03:21:08.845Z,32.00
2022-08-05T03:22:16.360Z,32.00
2022-08-05T03:23:09.824Z,36.00
2022-08-05T03:24:08.823Z,40.00
2022-08-05T03:25:34.093Z,44.00
2022-08-05T03:26:31.813Z,48.00
2022-08-05T03:27:09.782Z,52.00
2022-08-05T03:28:08.827Z,56.00
2022-08-05T03:29:12.399Z,60.00
2022-08-05T03:30:09.775Z,64.00
2022-08-05T03:31:08.737Z,72.00
2022-08-05T03:32:08.743Z,76.00
2022-08-05T03:33:08.720Z,84.00
2022-08-05T03:34:08.745Z,88.00
2022-08-05T03:35:08.900Z,92.00
2022-08-05T03:36:11.938Z,100.00
2022-08-05T03:37:08.674Z,104.00
2022-08-05T03:38:08.665Z,112.00
2022-08-05T03:39:12.973Z,120.00
2022-08-05T03:40:11.921Z,128.00
2022-08-05T03:41:10.963Z,136.00
2022-08-05T03:42:08.617Z,148.00
2022-08-05T03:43:59.167Z,160.00
2022-08-05T03:44:11.879Z,168.00
2022-08-05T03:45:21.735Z,180.00
2022-08-05T03:46:09.571Z,188.00
2022-08-05T03:47:08.558Z,204.00
2022-08-05T03:48:09.553Z,212.00
2022-08-05T03:49:08.537Z,220.00
2022-08-05T03:50:08.543Z,228.00
2022-08-05T03:52:48.461Z,236.00
2022-08-05T03:52:48.708Z,240.00
2022-08-05T03:55:51.580Z,252.00
2022-08-05T03:56:01.058Z,264.00
2022-08-05T03:56:03.861Z,272.00
2022-08-05T03:56:17.106Z,284.00
2022-08-05T03:57:16.453Z,296.00
2022-08-05T03:58:09.442Z,308.00
2022-08-05T03:59:08.425Z,316.00
2022-08-05T04:00:08.431Z,332.00
2022-08-05T04:01:08.406Z,344.00
2022-08-05T04:02:12.198Z,356.00
2022-08-05T04:03:09.379Z,368.00
2022-08-05T04:04:10.921Z,384.00
2022-08-05T04:05:09.880Z,400.00
2022-08-05T04:06:08.803Z,420.00
2022-08-05T04:07:08.342Z,448.00
2022-08-05T04:08:14.523Z,472.00
2022-08-05T04:09:09.313Z,492.00
2022-08-05T04:10:08.315Z,520.00
2022-08-05T04:11:08.746Z,544.00
2022-08-05T04:12:23.615Z,568.00
2022-08-05T04:13:09.271Z,596.00
2022-08-05T04:14:08.264Z,628.00
2022-08-05T04:15:08.265Z,660.00
2022-08-05T04:16:09.241Z,700.00
2022-08-05T04:17:09.228Z,740.00
2022-08-05T04:18:09.455Z,788.00
2022-08-05T04:19:10.537Z,820.00
2022-08-05T04:20:08.210Z,860.00
2022-08-05T04:21:10.945Z,896.00
2022-08-05T04:22:11.986Z,928.00
2022-08-05T04:23:08.159Z,956.00
2022-08-05T04:24:09.058Z,996.00
2022-08-05T04:25:08.146Z,1032.00
2022-08-05T04:26:08.130Z,1036.00
2022-08-05T04:27:09.114Z,1060.00
2022-08-05T04:28:11.299Z,1108.00
2022-08-05T04:29:08.092Z,1204.00
2022-08-05T04:30:08.094Z,1320.00
2022-08-05T04:31:10.465Z,1436.00
2022-08-05T04:32:08.065Z,1428.00
2022-08-05T04:33:08.050Z,1420.00
2022-08-05T04:34:19.082Z,1280.00
2022-08-05T04:35:17.768Z,1284.00
2022-08-05T04:36:15.912Z,1284.00
2022-08-05T04:37:09.003Z,1304.00
2022-08-05T04:38:07.996Z,1316.00
2022-08-05T04:39:08.063Z,1328.00
2022-08-05T04:40:07.984Z,1348.00
2022-08-05T04:41:09.614Z,1388.00
2022-08-05T04:42:07.963Z,1496.00
2022-08-05T04:43:10.938Z,1468.00
2022-08-05T04:44:09.913Z,1480.00
2022-08-05T04:45:07.931Z,1516.00
2022-08-05T04:46:08.947Z,1564.00
2022-08-05T04:47:09.900Z,1616.00
2022-08-05T04:48:07.890Z,1672.00
2022-08-05T04:49:12.438Z,1736.00
2022-08-05T04:50:11.094Z,1808.00
2022-08-05T04:51:10.979Z,1896.00
2022-08-05T04:52:07.877Z,2012.00
2022-08-05T04:53:08.468Z,2140.00
2022-08-05T04:54:07.822Z,2356.00
2022-08-05T04:55:13.853Z,2260.00
2022-08-05T04:56:14.899Z,2612.00
2022-08-05T04:57:08.787Z,2752.00
2022-08-05T04:58:07.779Z,2776.00
2022-08-05T04:59:21.789Z,2868.00
2022-08-05T05:00:08.767Z,2796.00
2022-08-05T05:01:07.816Z,2740.00
2022-08-05T05:02:36.463Z,2736.00
2022-08-05T05:03:08.850Z,2704.00
2022-08-05T05:04:07.714Z,2640.00
2022-08-05T05:05:26.117Z,2660.00
2022-08-05T05:06:40.698Z,2636.00
2022-08-05T05:07:09.538Z,2640.00
2022-08-05T05:08:14.127Z,2628.00
2022-08-05T05:09:08.660Z,2556.00
2022-08-05T05:10:07.663Z,2504.00
2022-08-05T05:11:07.645Z,2508.00
2022-08-05T05:12:07.689Z,2476.00
2022-08-05T05:13:07.617Z,2460.00
2022-08-05T05:14:08.680Z,2560.00
2022-08-05T05:15:10.647Z,2488.00
2022-08-05T05:16:07.587Z,2464.00
2022-08-05T05:17:09.351Z,2360.00
2022-08-05T05:18:07.567Z,2420.00
2022-08-05T05:19:19.191Z,2388.00
2022-08-05T05:20:08.560Z,2308.00
2022-08-05T05:21:07.531Z,2284.00
2022-08-05T05:22:23.923Z,2264.00
2022-08-05T05:23:19.732Z,2288.00
2022-08-05T05:24:09.173Z,2304.00
2022-08-05T05:25:16.897Z,2324.00
2022-08-05T05:26:08.493Z,2316.00
2022-08-05T05:27:07.467Z,2292.00
2022-08-05T05:28:07.463Z,2272.00
2022-08-05T05:29:13.649Z,2260.00
2022-08-05T05:30:08.453Z,2248.00
2022-08-05T05:31:08.986Z,2248.00
2022-08-05T05:32:07.416Z,2248.00
2022-08-05T05:33:16.048Z,2232.00
2022-08-05T05:34:08.394Z,2200.00
2022-08-05T05:35:07.386Z,2152.00
2022-08-05T05:36:07.387Z,2088.00
2022-08-05T05:37:07.364Z,2032.00
2022-08-05T05:38:09.369Z,1988.00
2022-08-05T05:39:10.926Z,1892.00
2022-08-05T05:40:07.332Z,1840.00
2022-08-05T05:41:07.726Z,1880.00
2022-08-05T05:42:07.360Z,1904.00
2022-08-05T05:43:08.610Z,1932.00
2022-08-05T05:44:35.545Z,1960.00
2022-08-05T05:45:08.278Z,1984.00
2022-08-05T05:46:13.785Z,1992.00
2022-08-05T05:47:13.344Z,1960.00
2022-08-05T05:48:08.804Z,1900.00
2022-08-05T05:49:22.962Z,1808.00
2022-08-05T05:50:08.232Z,1752.00
2022-08-05T05:51:15.152Z,1724.00
2022-08-05T05:52:08.202Z,1696.00
2022-08-05T05:53:22.530Z,1656.00
2022-08-05T05:54:08.181Z,1620.00
2022-08-05T05:55:13.099Z,1560.00
2022-08-05T05:56:08.171Z,1476.00
2022-08-05T05:57:13.565Z,1392.00
2022-08-05T05:58:08.177Z,1296.00
2022-08-05T05:59:07.635Z,1208.00
2022-08-05T06:00:07.124Z,1144.00
2022-08-05T06:01:13.135Z,1108.00
2022-08-05T06:02:08.097Z,1068.00
2022-08-05T06:03:40.799Z,1040.00
2022-08-05T06:04:08.266Z,1028.00
2022-08-05T06:05:10.387Z,1048.00
2022-08-05T06:06:08.066Z,1104.00
2022-08-05T06:07:07.046Z,1224.00
2022-08-05T06:08:07.035Z,1428.00
2022-08-05T06:09:07.626Z,1712.00
2022-08-05T06:10:10.164Z,2008.00
2022-08-05T06:11:07.014Z,2284.00
2022-08-05T06:12:06.991Z,2524.00
2022-08-05T06:13:06.983Z,2732.00
2022-08-05T06:14:06.972Z,2880.00
2022-08-05T06:15:08.135Z,2936.00
2022-08-05T06:16:28.691Z,2908.00
2022-08-05T06:17:22.586Z,2828.00
2022-08-05T06:18:07.926Z,2760.00
2022-08-05T06:19:07.429Z,2732.00
2022-08-05T06:20:06.907Z,2776.00
2022-08-05T06:21:08.095Z,2896.00
2022-08-05T06:22:07.884Z,2764.00
2022-08-05T06:23:06.872Z,2740.00
2022-08-05T06:24:07.719Z,2716.00
2022-08-05T06:25:59.673Z,2616.00
2022-08-05T06:26:13.785Z,2600.00
2022-08-05T06:27:17.291Z,2480.00
2022-08-05T06:28:10.481Z,2436.00
2022-08-05T06:29:42.778Z,2448.00
2022-08-05T06:30:17.639Z,2560.00
2022-08-05T06:31:10.895Z,2740.00
2022-08-05T06:32:26.302Z,3004.00
2022-08-05T06:33:09.966Z,3412.00
2022-08-05T06:34:08.902Z,3940.00
2022-08-05T06:35:15.438Z,4640.00
2022-08-05T06:36:10.200Z,5292.00
2022-08-05T06:37:06.724Z,5548.00
2022-08-05T06:38:11.354Z,6160.00
2022-08-05T06:39:07.765Z,6312.00
2022-08-05T06:40:06.691Z,6328.00
2022-08-05T06:41:07.983Z,6572.00
2022-08-05T06:42:06.670Z,6188.00
2022-08-05T06:43:06.662Z,6476.00
2022-08-05T06:44:07.648Z,6624.00
2022-08-05T06:45:08.626Z,6464.00
2022-08-05T06:46:07.525Z,6300.00
2022-08-05T06:47:06.621Z,6164.00
2022-08-05T06:48:36.023Z,6128.00
2022-08-05T06:49:08.277Z,6100.00
2022-08-05T06:50:06.587Z,5988.00
2022-08-05T06:51:07.377Z,5776.00
2022-08-05T06:52:06.563Z,5628.00
2022-08-05T06:53:22.311Z,5536.00
2022-08-05T06:54:08.043Z,5592.00
2022-08-05T06:55:06.533Z,5864.00
2022-08-05T06:56:06.541Z,5828.00
2022-08-05T06:57:57.836Z,5812.00
2022-08-05T06:58:30.182Z,5704.00
2022-08-05T06:59:08.525Z,5580.00
2022-08-05T07:00:06.484Z,5264.00
2022-08-05T07:01:06.706Z,5040.00
2022-08-05T07:02:06.469Z,5088.00
2022-08-05T07:03:07.538Z,5756.00
2022-08-05T07:04:06.437Z,5708.00
2022-08-05T07:05:18.734Z,8228.00
2022-08-05T07:06:13.958Z,6572.00
2022-08-05T07:07:08.102Z,6988.00
2022-08-05T07:08:06.395Z,7348.00
2022-08-05T07:09:06.389Z,8740.00
2022-08-05T07:10:06.376Z,9256.00
2022-08-05T07:11:06.376Z,8124.00
2022-08-05T07:12:07.351Z,8860.00
2022-08-05T07:13:06.348Z,7912.00
2022-08-05T07:14:06.332Z,8612.00
2022-08-05T07:15:06.321Z,8340.00
2022-08-05T07:16:06.319Z,8496.00
2022-08-05T07:17:58.471Z,8536.00
2022-08-05T07:18:09.048Z,8432.00
2022-08-05T07:19:06.315Z,7728.00
2022-08-05T07:21:07.273Z,7704.00
2022-08-05T07:22:06.260Z,7376.00
2022-08-05T07:23:06.567Z,7228.00
2022-08-05T07:24:11.347Z,7188.00
2022-08-05T07:25:09.560Z,7208.00
2022-08-05T07:26:07.221Z,6496.00
2022-08-05T07:27:08.878Z,6096.00
2022-08-05T07:28:09.710Z,5940.00
2022-08-05T07:29:07.177Z,5976.00
2022-08-05T07:30:22.293Z,6168.00
2022-08-05T07:31:07.175Z,5920.00
2022-08-05T07:32:06.163Z,5616.00
2022-08-05T07:33:09.422Z,5488.00
2022-08-05T07:34:06.123Z,5476.00
2022-08-05T07:36:04.527Z,5456.00
2022-08-05T07:36:21.200Z,5352.00
2022-08-05T07:37:07.100Z,5008.00
2022-08-05T07:38:06.081Z,4808.00
2022-08-05T07:39:07.108Z,4564.00
2022-08-05T07:40:32.580Z,4080.00
2022-08-05T07:42:09.648Z,3800.00
2022-08-05T07:42:13.744Z,3568.00
2022-08-05T07:43:14.551Z,3304.00
2022-08-05T07:44:14.206Z,3212.00
2022-08-05T07:45:09.234Z,3172.00
2022-08-05T07:46:06.011Z,3076.00
2022-08-05T07:47:07.831Z,2948.00
2022-08-05T07:48:05.979Z,2804.00
2022-08-05T07:49:07.949Z,2688.00
2022-08-05T07:50:06.482Z,2616.00
2022-08-05T07:51:08.672Z,2640.00
2022-08-05T07:52:06.959Z,2764.00
2022-08-05T07:53:05.926Z,2956.00
2022-08-05T07:54:05.916Z,3092.00
2022-08-05T07:55:15.887Z,3104.00
2022-08-05T07:57:02.526Z,3064.00
2022-08-05T07:57:22.835Z,2924.00
2022-08-05T07:58:07.159Z,2640.00
2022-08-05T07:59:08.482Z,2360.00
2022-08-05T08:00:05.854Z,2172.00
2022-08-05T08:01:06.896Z,2020.00
2022-08-05T08:02:06.833Z,1932.00
2022-08-05T08:03:13.824Z,1904.00
2022-08-05T08:04:06.814Z,1916.00
2022-08-05T08:05:05.801Z,1892.00
2022-08-05T08:06:05.814Z,1824.00
2022-08-05T08:07:07.460Z,1716.00
2022-08-05T08:08:05.770Z,1612.00
2022-08-05T08:09:06.755Z,1544.00
2022-08-05T08:10:05.758Z,1480.00
2022-08-05T08:11:08.945Z,1444.00
2022-08-05T08:12:12.468Z,1484.00
2022-08-05T08:13:06.714Z,1576.00
2022-08-05T08:14:05.709Z,1744.00
2022-08-05T08:15:13.898Z,1916.00
2022-08-05T08:16:35.401Z,2092.00
2022-08-05T08:17:06.681Z,2348.00
2022-08-05T08:18:09.705Z,2720.00
2022-08-05T08:19:06.651Z,3072.00
2022-08-05T08:20:21.167Z,3376.00
2022-08-05T08:21:09.477Z,3536.00
2022-08-05T08:22:06.621Z,3736.00
2022-08-05T08:23:05.610Z,5352.00
2022-08-05T08:24:09.517Z,4064.00
2022-08-05T08:25:15.809Z,4032.00
2022-08-05T08:26:06.581Z,3788.00
2022-08-05T08:27:07.079Z,3452.00
2022-08-05T08:28:05.569Z,3276.00
2022-08-05T08:29:45.299Z,3080.00
2022-08-05T08:30:27.649Z,2896.00
2022-08-05T08:31:06.556Z,2736.00
2022-08-05T08:32:05.514Z,2604.00
2022-08-05T08:33:08.185Z,2296.00
2022-08-05T08:34:05.490Z,1924.00
2022-08-05T08:35:05.504Z,1620.00
2022-08-05T08:36:38.918Z,1428.00
2022-08-05T08:37:06.460Z,1316.00
2022-08-05T08:38:05.449Z,1232.00
2022-08-05T08:39:05.506Z,1168.00
2022-08-05T08:40:06.425Z,1092.00
2022-08-05T08:41:05.453Z,1020.00
2022-08-05T08:42:10.809Z,960.00
2022-08-05T08:45:17.714Z,828.00
2022-08-05T08:45:20.133Z,912.00
2022-08-05T08:45:20.946Z,864.00
2022-08-05T08:46:06.396Z,824.00
2022-08-05T08:47:47.534Z,860.00
2022-08-05T08:48:23.091Z,908.00
2022-08-05T08:50:23.069Z,964.00
2022-08-05T08:50:30.908Z,984.00
2022-08-05T08:52:02.070Z,1004.00
2022-08-05T08:52:13.629Z,1028.00
2022-08-05T08:53:07.888Z,1052.00
2022-08-05T08:54:05.291Z,1072.00
2022-08-05T08:55:13.085Z,1112.00
2022-08-05T08:56:06.533Z,1080.00
2022-08-05T08:57:05.269Z,1004.00
2022-08-05T08:58:06.235Z,948.00
2022-08-05T08:59:14.725Z,928.00
2022-08-05T09:00:06.215Z,940.00
2022-08-05T09:01:05.278Z,976.00
2022-08-05T09:02:05.964Z,1004.00
2022-08-05T09:03:05.186Z,1028.00
2022-08-05T09:04:05.171Z,1072.00
2022-08-05T09:05:17.320Z,1200.00
2022-08-05T09:06:09.082Z,1444.00
2022-08-05T09:07:10.658Z,1692.00
2022-08-05T09:08:06.129Z,1844.00
2022-08-05T09:09:05.120Z,1992.00
2022-08-05T09:10:05.110Z,2136.00
2022-08-05T09:11:05.112Z,2208.00
2022-08-05T09:12:19.802Z,2188.00
2022-08-05T09:13:06.075Z,2096.00
2022-08-05T09:14:54.745Z,2012.00
2022-08-05T09:15:06.641Z,2004.00
2022-08-05T09:16:05.061Z,2008.00
2022-08-05T09:17:08.286Z,1996.00
2022-08-05T09:18:05.037Z,2004.00
2022-08-05T09:19:06.915Z,2016.00
2022-08-05T09:20:05.702Z,2076.00
2022-08-05T09:21:04.995Z,2200.00
2022-08-05T09:22:22.998Z,2364.00
2022-08-05T09:23:09.028Z,2504.00
2022-08-05T09:24:04.959Z,2608.00
2022-08-05T09:25:13.895Z,2548.00
2022-08-05T09:26:05.977Z,2504.00
2022-08-05T09:27:04.927Z,2676.00
2022-08-05T09:28:06.457Z,3128.00
2022-08-05T09:29:04.915Z,3584.00
2022-08-05T09:30:06.713Z,3932.00
2022-08-05T09:31:23.245Z,4376.00
2022-08-05T09:32:41.756Z,4832.00
2022-08-05T09:33:05.863Z,3852.00
2022-08-05T09:34:04.851Z,3316.00
2022-08-05T09:35:04.853Z,3332.00
2022-08-05T09:36:11.919Z,3516.00
2022-08-05T09:37:05.869Z,3676.00
2022-08-05T09:38:12.539Z,3864.00
2022-08-05T09:39:18.499Z,3536.00
2022-08-05T09:40:05.922Z,3536.00
2022-08-05T09:41:04.780Z,3724.00
2022-08-05T09:42:04.789Z,4132.00
2022-08-05T09:43:04.758Z,4980.00
2022-08-05T09:44:04.743Z,3608.00
2022-08-05T09:46:04.843Z,2884.00
2022-08-05T09:46:08.517Z,2408.00
2022-08-05T09:47:04.715Z,2108.00
2022-08-05T09:48:05.702Z,1940.00
2022-08-05T09:49:08.416Z,1856.00
2022-08-05T09:50:05.712Z,1784.00
2022-08-05T09:51:04.674Z,1720.00
2022-08-05T09:52:05.661Z,1596.00
2022-08-05T09:53:04.662Z,1408.00
2022-08-05T09:54:04.642Z,1280.00
2022-08-05T09:55:55.107Z,1268.00
2022-08-05T09:56:13.392Z,1332.00
2022-08-05T09:57:05.606Z,1336.00
2022-08-05T09:58:05.792Z,1292.00
2022-08-05T09:59:04.587Z,1260.00
2022-08-05T10:00:07.716Z,1216.00
2022-08-05T10:01:13.744Z,1188.00
2022-08-05T10:02:05.553Z,1220.00
2022-08-05T10:03:04.613Z,1276.00
2022-08-05T10:04:10.023Z,1380.00
2022-08-05T10:05:05.560Z,1480.00
2022-08-05T10:06:07.617Z,1464.00
2022-08-05T10:07:19.691Z,1380.00
2022-08-05T10:08:34.737Z,1316.00
2022-08-05T10:09:05.476Z,1264.00
2022-08-05T10:10:15.092Z,1328.00
2022-08-05T10:11:05.456Z,1440.00
2022-08-05T10:12:07.524Z,1524.00
2022-08-05T10:13:09.695Z,1672.00
2022-08-05T10:14:04.469Z,1740.00
2022-08-05T10:15:05.428Z,1540.00
2022-08-05T10:16:04.412Z,1420.00
2022-08-05T10:17:04.395Z,1516.00
2022-08-05T10:18:05.415Z,1536.00
2022-08-05T10:19:09.421Z,1556.00
2022-08-05T10:20:10.104Z,1716.00
2022-08-05T10:21:06.103Z,2428.00
2022-08-05T10:22:04.342Z,7788.00
2022-08-05T10:23:04.329Z,8460.00
2022-08-05T10:24:09.069Z,6284.00
2022-08-05T10:25:05.319Z,5708.00
2022-08-05T10:26:04.298Z,5344.00
2022-08-05T10:27:04.357Z,4164.00
2022-08-05T10:28:09.455Z,3132.00
2022-08-05T10:29:05.346Z,2676.00
2022-08-05T10:30:40.931Z,2524.00
2022-08-05T10:32:54.348Z,2080.00
2022-08-05T10:32:55.165Z,2312.00
2022-08-05T10:33:05.651Z,1860.00
2022-08-05T10:34:04.239Z,1576.00
2022-08-05T10:35:04.199Z,1304.00
2022-08-05T10:36:04.192Z,1168.00
2022-08-05T10:37:04.183Z,1136.00
2022-08-05T10:38:04.173Z,1104.00
2022-08-05T10:39:05.209Z,1052.00
2022-08-05T10:40:17.602Z,1032.00
2022-08-05T10:41:05.204Z,1032.00
2022-08-05T10:42:04.148Z,1040.00
2022-08-05T10:43:04.725Z,1072.00
2022-08-05T10:44:05.540Z,1120.00
2022-08-05T10:45:21.038Z,1184.00
2022-08-05T10:46:06.495Z,1212.00
2022-08-05T10:47:04.073Z,1240.00
2022-08-05T10:48:30.201Z,1304.00
2022-08-05T10:49:08.060Z,1356.00
2022-08-05T10:50:31.748Z,1404.00
2022-08-05T10:51:05.028Z,1484.00
2022-08-05T10:52:10.247Z,1612.00
2022-08-05T10:53:05.007Z,1740.00
2022-08-05T10:54:23.186Z,1848.00
2022-08-05T10:55:04.987Z,1920.00
2022-08-05T10:56:07.946Z,1932.00
2022-08-05T10:57:04.963Z,1916.00
2022-08-05T10:58:03.972Z,1916.00
2022-08-05T10:59:12.348Z,1956.00
2022-08-05T11:00:12.027Z,1972.00
2022-08-05T11:01:04.924Z,1912.00
2022-08-05T11:02:05.449Z,1780.00
2022-08-05T11:03:25.950Z,1612.00
2022-08-05T11:04:04.903Z,1484.00
2022-08-05T11:05:03.891Z,1404.00
2022-08-05T11:06:03.974Z,1416.00
2022-08-05T11:07:03.861Z,1544.00
2022-08-05T11:08:12.722Z,1808.00
2022-08-05T11:09:04.848Z,2252.00
2022-08-05T11:10:09.987Z,2976.00
2022-08-05T11:11:10.997Z,3932.00
2022-08-05T11:12:04.804Z,4936.00
2022-08-05T11:13:03.795Z,5944.00
2022-08-05T11:14:03.796Z,6924.00
2022-08-05T11:15:19.004Z,7888.00
2022-08-05T11:16:04.778Z,8084.00
2022-08-05T11:17:53.274Z,7552.00
2022-08-05T11:18:04.747Z,7728.00
2022-08-05T11:20:16.575Z,8492.00
2022-08-05T11:20:17.830Z,8432.00
2022-08-05T11:21:06.314Z,7952.00
2022-08-05T11:22:04.700Z,8500.00
2022-08-05T11:23:08.771Z,8180.00
2022-08-05T11:24:30.403Z,7384.00
2022-08-05T11:26:03.149Z,7140.00
2022-08-05T11:26:08.655Z,7560.00
2022-08-05T11:27:03.649Z,7036.00
2022-08-05T11:28:03.663Z,7252.00
2022-08-05T11:29:06.764Z,6660.00
2022-08-05T11:30:04.615Z,6556.00
2022-08-05T11:31:06.426Z,6148.00
2022-08-05T11:32:03.653Z,6084.00
2022-08-05T11:33:03.583Z,6136.00
2022-08-05T11:34:03.631Z,5904.00
2022-08-05T11:35:03.562Z,5072.00
2022-08-05T11:36:08.779Z,5780.00
2022-08-05T11:37:06.151Z,5704.00
2022-08-05T11:38:29.336Z,5216.00
2022-08-05T11:39:04.573Z,5076.00
2022-08-05T11:40:04.510Z,5648.00
2022-08-05T11:41:34.416Z,5864.00
2022-08-05T11:42:04.846Z,5284.00
2022-08-05T11:43:03.475Z,5924.00
2022-08-05T11:44:05.516Z,6848.00
2022-08-05T11:45:03.473Z,6772.00
2022-08-05T11:46:15.573Z,6364.00
2022-08-05T11:47:13.773Z,6416.00
2022-08-05T11:48:04.424Z,6340.00
2022-08-05T11:49:03.433Z,6212.00
2022-08-05T11:50:03.405Z,5908.00
2022-08-05T11:51:03.404Z,5820.00
2022-08-05T11:52:08.643Z,6580.00
2022-08-05T11:53:04.369Z,6480.00
2022-08-05T11:54:04.406Z,6144.00
2022-08-05T11:55:07.758Z,6200.00
2022-08-05T11:56:04.352Z,6184.00
2022-08-05T11:57:08.353Z,6208.00
2022-08-05T11:58:09.840Z,7048.00
2022-08-05T11:59:04.322Z,7708.00
2022-08-05T12:00:04.299Z,7612.00
2022-08-05T12:01:03.289Z,6888.00
2022-08-05T12:02:04.279Z,6144.00
2022-08-05T12:03:03.335Z,6552.00
2022-08-05T12:04:03.277Z,6692.00
2022-08-05T12:05:07.453Z,6600.00
2022-08-05T12:06:06.114Z,6712.00
2022-08-05T12:07:03.226Z,6436.00
2022-08-05T12:08:09.801Z,6184.00
2022-08-05T12:09:04.216Z,5956.00
2022-08-05T12:10:09.263Z,5848.00
2022-08-05T12:11:06.133Z,6020.00
2022-08-05T12:12:03.315Z,6304.00
2022-08-05T12:13:03.165Z,6380.00
2022-08-05T12:14:04.509Z,6332.00
2022-08-05T12:15:03.144Z,6556.00
2022-08-05T12:16:03.191Z,7000.00
2022-08-05T12:17:04.120Z,6520.00
2022-08-05T12:18:10.736Z,6596.00
2022-08-05T12:19:04.115Z,6184.00
2022-08-05T12:20:26.325Z,5996.00
2022-08-05T12:21:04.078Z,5896.00
2022-08-05T12:22:03.074Z,5592.00
2022-08-05T12:23:03.061Z,5328.00
2022-08-05T12:24:04.374Z,4972.00
2022-08-05T12:25:03.039Z,4740.00
2022-08-05T12:26:03.031Z,4692.00
2022-08-05T12:27:09.883Z,4824.00